Terminal Aerodrome Forecast
Issued by NWS

Home | Current Version | Previous Version | Text Only | Print | Product List | Glossary On
Versions: 1 2 3 4 5 6 7 8 9 10 11 12 13 14 15 16 17
000
FTUS43 KOAX 061742
TAFSNY
TAF
KSNY 061742Z 0618/0718 02015KT 4SM HZ OVC030
     FM062000 02010KT 5SM HZ OVC050
     FM070200 10008KT P6SM OVC080=

USA.gov is the U.S. government's official web portal to all federal, state and local government web resources and services.